createdAt,value
2023-04-28T00:02:23.634Z,98.98
2023-04-28T00:05:36.038Z,100.00
2023-04-28T00:08:48.795Z,100.00
2023-04-28T00:12:01.012Z,100.00
2023-04-28T00:15:15.512Z,100.00
2023-04-28T00:18:29.237Z,100.00
2023-04-28T00:21:41.614Z,100.00
2023-04-28T00:24:53.780Z,100.00
2023-04-28T00:28:05.922Z,100.00
2023-04-28T00:31:21.957Z,100.00
2023-04-28T00:34:34.342Z,100.00
2023-04-28T00:37:46.588Z,100.00
2023-04-28T00:40:58.847Z,100.00
2023-04-28T00:44:11.468Z,100.00
2023-04-28T00:47:25.413Z,100.00
2023-04-28T00:50:37.793Z,100.00
2023-04-28T00:53:50.847Z,100.00
2023-04-28T00:57:03.637Z,100.00
2023-04-28T01:00:19.057Z,100.00
2023-04-28T01:03:31.490Z,100.00
2023-04-28T01:06:45.121Z,100.00
2023-04-28T01:09:57.104Z,100.00
2023-04-28T01:13:11.106Z,100.00
2023-04-28T01:16:26.357Z,99.86
2023-04-28T01:19:39.056Z,100.00
2023-04-28T01:22:52.720Z,100.00
2023-04-28T01:26:05.613Z,98.94
2023-04-28T01:29:19.077Z,98.89
2023-04-28T01:32:31.708Z,99.46
2023-04-28T01:35:43.994Z,100.00
2023-04-28T01:38:56.184Z,100.00
2023-04-28T01:42:09.141Z,100.00
2023-04-28T01:45:21.608Z,100.00
2023-04-28T01:48:33.823Z,100.00
2023-04-28T01:51:46.136Z,100.00
2023-04-28T01:54:59.702Z,100.00
2023-04-28T01:58:12.209Z,100.00
2023-04-28T02:01:24.352Z,100.00
2023-04-28T02:04:36.826Z,100.00
2023-04-28T02:07:49.111Z,100.00
2023-04-28T02:11:01.958Z,100.00
2023-04-28T02:14:14.592Z,100.00
2023-04-28T02:17:27.303Z,100.00
2023-04-28T02:20:39.505Z,100.00
2023-04-28T02:23:53.339Z,100.00
2023-04-28T02:27:05.527Z,100.00
2023-04-28T02:30:19.668Z,100.00
2023-04-28T02:33:31.805Z,100.00
2023-04-28T02:36:45.168Z,100.00
2023-04-28T02:39:58.542Z,100.00
2023-04-28T02:43:10.916Z,100.00
2023-04-28T02:46:22.975Z,100.00
2023-04-28T02:49:35.131Z,100.00
2023-04-28T02:52:49.053Z,100.00
2023-04-28T02:56:02.474Z,100.00
2023-04-28T02:59:15.276Z,100.00
2023-04-28T03:02:27.442Z,100.00
2023-04-28T03:05:39.798Z,100.00
2023-04-28T03:08:52.094Z,100.00
2023-04-28T03:12:04.080Z,100.00
2023-04-28T03:15:18.712Z,100.00
2023-04-28T03:18:31.292Z,100.00
2023-04-28T03:21:43.985Z,100.00
2023-04-28T03:24:57.852Z,100.00
2023-04-28T03:28:10.902Z,100.00
2023-04-28T03:31:23.109Z,100.00
2023-04-28T03:34:35.487Z,100.00
2023-04-28T03:37:48.713Z,100.00
2023-04-28T03:41:01.068Z,100.00
2023-04-28T03:44:31.765Z,100.00
2023-04-28T03:47:44.402Z,100.00
2023-04-28T03:50:56.779Z,100.00
2023-04-28T03:54:10.598Z,100.00
2023-04-28T03:57:22.832Z,100.00
2023-04-28T04:00:36.916Z,100.00
2023-04-28T04:03:49.234Z,100.00
2023-04-28T04:07:05.094Z,100.00
2023-04-28T04:10:18.829Z,100.00
2023-04-28T04:13:31.141Z,100.00
2023-04-28T04:16:43.531Z,100.00
2023-04-28T04:19:55.675Z,100.00
2023-04-28T04:23:08.015Z,100.00
2023-04-28T04:26:21.933Z,100.00
2023-04-28T04:29:35.974Z,100.00
2023-04-28T04:32:49.785Z,100.00
2023-04-28T04:36:02.149Z,100.00
2023-04-28T04:39:15.554Z,100.00
2023-04-28T05:00:58.002Z,100.00
2023-04-28T05:04:11.296Z,100.00
2023-04-28T05:07:23.836Z,100.00
2023-04-28T05:10:36.002Z,98.72
2023-04-28T05:13:48.869Z,96.17
2023-04-28T05:17:01.587Z,93.48
2023-04-28T05:20:18.026Z,92.14
2023-04-28T05:23:30.434Z,87.73
2023-04-28T05:26:43.457Z,87.09
2023-04-28T06:29:24.950Z,54.09
2023-04-28T06:32:37.796Z,52.66
2023-04-28T06:35:53.257Z,51.28
2023-04-28T06:39:05.997Z,54.64
2023-04-28T06:42:20.916Z,56.29
2023-04-28T06:45:34.916Z,55.04
2023-04-28T06:48:48.932Z,54.77
2023-04-28T06:52:02.466Z,54.05
2023-04-28T06:55:20.605Z,54.37
2023-04-28T06:58:33.426Z,54.96
2023-04-28T07:01:46.270Z,51.05
2023-04-28T07:04:58.746Z,51.85
2023-04-28T07:08:12.177Z,51.44
2023-04-28T07:11:25.216Z,49.08
2023-04-28T07:14:37.730Z,48.61
2023-04-28T07:17:50.089Z,51.06
2023-04-28T07:21:04.832Z,49.55
2023-04-28T07:24:17.985Z,47.88
2023-04-28T07:27:31.061Z,42.39
2023-04-28T07:30:43.523Z,41.19
2023-04-28T07:33:55.797Z,41.89
2023-04-28T07:37:08.919Z,39.63
2023-04-28T07:40:22.012Z,39.01
2023-04-28T07:43:34.180Z,38.83
2023-04-28T07:46:47.327Z,36.57
2023-04-28T07:50:00.818Z,35.32
2023-04-28T07:53:13.123Z,34.89
2023-04-28T07:56:26.222Z,33.90
2023-04-28T07:59:38.861Z,34.07
2023-04-28T08:02:51.578Z,35.28
2023-04-28T08:06:05.151Z,36.35
2023-04-28T08:09:17.863Z,36.99
2023-04-28T08:12:30.354Z,37.04
2023-04-28T08:15:42.796Z,36.38
2023-04-28T08:18:55.422Z,35.61
2023-04-28T08:22:08.423Z,35.54
2023-04-28T08:25:21.051Z,36.91
2023-04-28T08:28:34.357Z,36.90
2023-04-28T08:31:47.514Z,35.43
2023-04-28T08:35:00.714Z,34.69
2023-04-28T08:38:15.518Z,34.51
2023-04-28T08:41:28.189Z,35.32
2023-04-28T08:44:45.014Z,34.48
2023-04-28T08:47:58.432Z,35.69
2023-04-28T08:51:13.010Z,33.81
2023-04-28T08:54:27.055Z,34.12
2023-04-28T08:57:44.783Z,35.97
2023-04-28T09:00:57.501Z,33.59
2023-04-28T09:04:13.473Z,33.11
2023-04-28T09:07:25.425Z,33.35
2023-04-28T09:10:38.431Z,32.73
2023-04-28T09:13:52.987Z,32.21
2023-04-28T09:17:05.706Z,34.21
2023-04-28T09:20:29.658Z,33.12
2023-04-28T09:23:52.939Z,34.09
2023-04-28T09:27:07.843Z,32.27
2023-04-28T09:30:21.535Z,32.88
2023-04-28T09:33:41.779Z,31.60
2023-04-28T09:36:57.699Z,32.67
2023-04-28T09:40:16.968Z,31.13
2023-04-28T09:43:38.460Z,30.46
2023-04-28T09:46:52.504Z,29.93
2023-04-28T09:50:06.889Z,31.73
2023-04-28T09:53:20.497Z,30.29
2023-04-28T09:56:35.517Z,32.55
2023-04-28T09:59:48.812Z,31.65
2023-04-28T10:03:01.563Z,32.61
2023-04-28T10:06:14.890Z,32.28
2023-04-28T10:09:29.282Z,31.67
2023-04-28T10:12:42.188Z,31.94
2023-04-28T10:15:55.843Z,32.57
2023-04-28T10:19:14.044Z,30.15
2023-04-28T10:22:56.761Z,32.29
2023-04-28T10:26:16.612Z,33.29
2023-04-28T10:29:33.312Z,31.61
2023-04-28T10:32:46.153Z,32.08
2023-04-28T10:35:59.276Z,31.80
2023-04-28T10:39:18.794Z,32.16
2023-04-28T10:43:00.890Z,31.64
2023-04-28T10:46:15.220Z,30.97
2023-04-28T10:49:32.112Z,32.16
2023-04-28T10:53:00.862Z,31.57
2023-04-28T10:56:16.947Z,32.60
2023-04-28T10:59:35.214Z,33.06
2023-04-28T11:02:50.465Z,33.68
2023-04-28T11:06:29.213Z,33.62
2023-04-28T11:09:58.309Z,31.57
2023-04-28T11:13:36.292Z,30.39
2023-04-28T11:16:59.827Z,31.62
2023-04-28T11:20:17.139Z,29.25
2023-04-28T11:23:31.584Z,30.41
2023-04-28T11:26:45.229Z,30.03
2023-04-28T11:29:58.552Z,31.23
2023-04-28T11:33:11.454Z,32.13
2023-04-28T11:36:36.164Z,35.03
2023-04-28T11:39:48.279Z,32.67
2023-04-28T11:43:01.919Z,30.52
2023-04-28T11:46:15.313Z,29.30
2023-04-28T11:49:29.303Z,29.78
2023-04-28T11:52:41.731Z,30.97
2023-04-28T11:55:53.918Z,32.35
2023-04-28T11:59:12.685Z,31.93
2023-04-28T12:02:33.964Z,30.93
2023-04-28T12:05:53.284Z,30.00
2023-04-28T12:09:06.233Z,30.64
2023-04-28T12:12:22.993Z,30.41
2023-04-28T12:15:47.739Z,30.65
2023-04-28T12:19:09.235Z,32.59
2023-04-28T12:22:21.432Z,32.75
2023-04-28T12:25:34.391Z,33.82
2023-04-28T12:28:47.544Z,30.85
2023-04-28T12:31:59.805Z,33.61
2023-04-28T12:35:13.928Z,33.65
2023-04-28T12:38:26.136Z,30.90
2023-04-28T12:41:38.569Z,30.95
2023-04-28T12:44:50.664Z,31.92
2023-04-28T12:48:03.595Z,32.20
2023-04-28T12:51:15.707Z,31.49
2023-04-28T12:54:28.014Z,32.45
2023-04-28T12:57:40.730Z,31.70
2023-04-28T13:00:52.952Z,32.73
2023-04-28T13:04:05.177Z,32.65
2023-04-28T13:07:17.772Z,31.55
2023-04-28T13:10:30.057Z,32.84
2023-04-28T13:13:43.204Z,32.77
2023-04-28T13:16:55.730Z,32.01
2023-04-28T13:20:08.433Z,30.76
2023-04-28T13:23:20.395Z,29.86
2023-04-28T13:26:32.637Z,29.67
2023-04-28T13:29:44.878Z,30.14
2023-04-28T13:32:57.753Z,31.92
2023-04-28T13:36:11.580Z,33.48
2023-04-28T13:39:23.734Z,33.58
2023-04-28T13:42:36.032Z,33.77
2023-04-28T13:45:48.273Z,34.88
2023-04-28T13:49:00.447Z,34.50
2023-04-28T13:52:12.851Z,35.10
2023-04-28T13:55:27.679Z,33.82
2023-04-28T13:58:41.738Z,34.52
2023-04-28T14:01:53.981Z,35.95
2023-04-28T14:05:06.195Z,34.40
2023-04-28T14:08:20.045Z,34.65
2023-04-28T14:11:32.546Z,34.25
2023-04-28T14:14:44.979Z,34.41
2023-04-28T14:17:58.009Z,35.54
2023-04-28T14:21:10.480Z,35.46
2023-04-28T14:24:22.802Z,33.43
2023-04-28T14:27:35.095Z,36.48
2023-04-28T14:30:47.437Z,35.28
2023-04-28T14:34:00.136Z,34.74
2023-04-28T14:37:12.413Z,34.63
2023-04-28T14:40:24.987Z,34.33
2023-04-28T14:43:38.261Z,36.21
2023-04-28T14:46:50.919Z,35.68
2023-04-28T14:50:03.384Z,34.92
2023-04-28T14:53:15.481Z,34.71
2023-04-28T14:56:29.107Z,36.97
2023-04-28T14:59:41.961Z,36.62
2023-04-28T15:02:54.545Z,36.36
2023-04-28T15:06:07.231Z,39.29
2023-04-28T15:09:19.527Z,35.75
2023-04-28T15:12:34.488Z,38.73
2023-04-28T15:15:46.953Z,39.47
2023-04-28T15:18:59.839Z,38.42
2023-04-28T15:22:12.091Z,37.81
2023-04-28T15:25:24.490Z,38.41
2023-04-28T15:28:36.598Z,39.10
2023-04-28T15:31:49.565Z,38.16
2023-04-28T15:35:01.872Z,42.29
2023-04-28T15:38:15.223Z,41.46
2023-04-28T15:41:27.858Z,40.19
2023-04-28T15:44:40.229Z,40.07
2023-04-28T15:47:55.362Z,41.92
2023-04-28T15:51:07.744Z,41.65
2023-04-28T15:54:21.245Z,40.53
2023-04-28T15:57:33.343Z,41.88
2023-04-28T16:00:46.353Z,40.55
2023-04-28T16:03:58.853Z,44.90
2023-04-28T16:07:11.338Z,41.00
2023-04-28T16:10:23.866Z,42.23
2023-04-28T16:13:37.540Z,42.00
2023-04-28T16:16:49.719Z,41.45
2023-04-28T16:20:02.924Z,41.60
2023-04-28T16:23:15.452Z,41.32
2023-04-28T16:26:28.361Z,40.91
2023-04-28T16:29:40.369Z,42.50
2023-04-28T16:32:53.185Z,43.00
2023-04-28T16:36:05.925Z,44.07
2023-04-28T16:39:18.365Z,46.49
2023-04-28T16:42:30.939Z,47.99
2023-04-28T16:45:43.236Z,46.02
2023-04-28T16:48:55.443Z,45.48
2023-04-28T16:52:09.787Z,45.66
2023-04-28T16:55:22.019Z,47.33
2023-04-28T16:58:34.188Z,47.42
2023-04-28T17:01:46.685Z,45.79
2023-04-28T17:04:59.736Z,46.57
2023-04-28T17:08:12.378Z,47.62
2023-04-28T17:11:25.209Z,47.62
2023-04-28T17:14:37.590Z,49.31
2023-04-28T17:17:50.942Z,47.34
2023-04-28T17:21:04.266Z,49.01
2023-04-28T17:24:16.610Z,48.50
2023-04-28T17:27:29.306Z,49.03
2023-04-28T17:30:46.913Z,48.71
2023-04-28T17:33:59.284Z,49.85
2023-04-28T17:37:11.656Z,49.13
2023-04-28T17:40:24.474Z,50.48
2023-04-28T17:43:37.848Z,50.33
2023-04-28T17:46:50.500Z,51.80
2023-04-28T17:50:03.761Z,52.01
2023-04-28T17:53:17.092Z,52.37
2023-04-28T17:56:29.913Z,52.21
2023-04-28T17:59:42.938Z,52.80
2023-04-28T18:02:55.818Z,52.90
2023-04-28T18:06:09.109Z,54.08
2023-04-28T18:09:21.352Z,54.09
2023-04-28T18:15:34.509Z,56.50
2023-04-28T18:18:48.254Z,55.30
2023-04-28T18:22:00.764Z,57.26
2023-04-28T18:25:16.687Z,58.45
2023-04-28T18:28:29.112Z,57.68
2023-04-28T18:31:42.487Z,57.89
2023-04-28T18:34:56.435Z,59.68
2023-04-28T18:38:09.142Z,58.50
2023-04-28T18:41:24.028Z,58.31
2023-04-28T18:44:37.212Z,59.73
2023-04-28T18:47:49.745Z,59.33
2023-04-28T18:51:03.896Z,59.12
2023-04-28T18:54:17.141Z,59.05
2023-04-28T18:57:29.561Z,59.95
2023-04-28T19:00:42.801Z,59.12
2023-04-28T19:03:55.748Z,59.67
2023-04-28T19:07:08.380Z,58.89
2023-04-28T19:10:21.230Z,62.22
2023-04-28T19:13:33.580Z,61.39
2023-04-28T19:16:46.023Z,59.61
2023-04-28T19:20:00.831Z,59.38
2023-04-28T19:23:13.420Z,60.25
2023-04-28T19:26:25.845Z,61.37
2023-04-28T19:37:26.222Z,62.33
2023-04-28T19:40:38.327Z,61.28
2023-04-28T19:43:50.831Z,61.94
2023-04-28T19:47:03.044Z,61.85
2023-04-28T19:50:29.180Z,63.85
2023-04-28T19:57:24.001Z,63.59
2023-04-28T20:00:36.198Z,64.96
2023-04-28T20:03:48.474Z,67.60
2023-04-28T20:07:12.088Z,66.07
2023-04-28T20:14:26.093Z,67.13
2023-04-28T20:17:38.836Z,66.81
2023-04-28T20:20:51.187Z,68.63
2023-04-28T20:24:03.403Z,69.95
2023-04-28T20:27:16.017Z,69.01
2023-04-28T20:30:39.649Z,69.80
2023-04-28T20:37:32.394Z,70.42
2023-04-28T20:40:45.605Z,70.41
2023-04-28T20:43:58.008Z,70.07
2023-04-28T20:47:23.252Z,70.58
2023-04-28T20:50:39.546Z,71.37
2023-04-28T20:53:53.394Z,71.43
2023-04-28T20:57:06.040Z,71.42
2023-04-28T21:00:20.927Z,70.73
2023-04-28T21:03:34.212Z,70.54
2023-04-28T21:06:46.831Z,71.74
2023-04-28T21:09:59.270Z,71.44
2023-04-28T21:13:14.386Z,70.99
2023-04-28T21:16:29.178Z,72.22
2023-04-28T21:19:42.700Z,75.13
2023-04-28T21:26:38.198Z,76.53
2023-04-28T21:29:50.946Z,75.09
2023-04-28T21:33:03.605Z,76.95
2023-04-28T21:39:57.887Z,76.30
2023-04-28T21:43:10.830Z,75.13
2023-04-28T21:46:23.041Z,77.59
2023-04-28T21:49:35.317Z,78.42
2023-04-28T21:52:47.341Z,78.14
2023-04-28T21:55:59.523Z,76.99
2023-04-28T21:59:11.880Z,77.11
2023-04-28T22:02:25.513Z,78.08
2023-04-28T22:05:38.809Z,80.07
2023-04-28T22:08:50.987Z,82.55
2023-04-28T22:12:03.289Z,83.70
2023-04-28T22:15:17.490Z,81.75
2023-04-28T22:18:29.817Z,80.73
2023-04-28T22:21:42.412Z,80.94
2023-04-28T22:24:54.571Z,81.15
2023-04-28T22:28:06.619Z,81.95
2023-04-28T22:31:18.699Z,82.25
2023-04-28T22:34:30.962Z,81.84
2023-04-28T22:37:43.266Z,82.90
2023-04-28T22:40:55.439Z,83.21
2023-04-28T22:44:07.637Z,83.70
2023-04-28T22:47:19.860Z,82.51
2023-04-28T22:50:32.185Z,82.88
2023-04-28T22:53:44.479Z,82.98
2023-04-28T22:56:56.591Z,82.25
2023-04-28T23:00:09.615Z,84.83
2023-04-28T23:03:22.132Z,86.01
2023-04-28T23:06:34.833Z,88.30
2023-04-28T23:09:46.842Z,89.05
2023-04-28T23:12:58.893Z,89.21
2023-04-28T23:16:12.546Z,89.65
2023-04-28T23:19:24.856Z,89.47
2023-04-28T23:22:37.058Z,89.89
2023-04-28T23:25:51.257Z,90.53
2023-04-28T23:29:03.672Z,90.82
2023-04-28T23:32:15.879Z,91.47
2023-04-28T23:35:28.186Z,93.15
2023-04-28T23:38:40.435Z,91.97
2023-04-28T23:41:53.208Z,89.36
2023-04-28T23:45:07.163Z,88.33
2023-04-28T23:48:19.326Z,88.01
2023-04-28T23:51:32.439Z,87.84
2023-04-28T23:54:44.792Z,87.29
2023-04-28T23:57:57.013Z,87.66
